Island City, Indiana
Current Conditions -  °F | °C
As of 2:55 AM on Thursday 29 Jan 2015 (Local Time) from KDCY Reporting Station
Light Rain Light Rain  
Wind Chill: 29°   Ceiling: 8500
Heat Index: 38°   Visibility: 10mi
Dew Point: 28°   Wind: 16mph
Humidity: 67%   Direction: 170°S
Pressure: 29.91"   Gusts: 23mph
Location:  39.0608°N, 87.1852°W
Report Text: KDCY 290755Z AUTO 17014G20KT 10SM -RA OVC085 03/M02 A2991 RMK AO2 P0001 T00321024
Loading
Personal Weather Stations






























Interactive Weather Map New forecast layout! Learn more

10-Day Weather Forecast

Advertisements
Track Severe Weather on mobile